Bracken, Texas
Current Conditions -  °F | °C
As of 3:58 PM on Tuesday 25 Nov 2014 (Local Time) from KRND Reporting Station
Clear Clear  
Wind Chill: 66°   Ceiling: Unl
Heat Index: 66°   Visibility: 10mi
Dew Point: 26°   Wind: 8mph
Humidity: 22%   Direction: 240°WSW
Pressure: 30.22"   Gusts: NA
Location:  29.6654°N, 98.3191°W
Report Text: KRND 252158Z AUTO 24007KT 10SM CLR 19/M03 A3022 RMK AO2 SLP233 T01881033
Loading
Personal Weather Stations






























Interactive Weather Map New forecast layout! Learn more

10-Day Weather Forecast

Advertisements
Track Severe Weather on mobile